Time;durP1;ratioP1;P1;durP2;ratioP2;P2;SDS_P1;SDS_P2;PMS_P1;PMS_P2;Temp;Humidity;BMP_temperature;BMP_pressure;BME280_temperature;BME280_humidity;BME280_pressure;Samples;Min_cycle;Max_cycle;Signal;HPM_P1;HPM_P2
2021/07/04 00:00:32;;;;;;;4.63;4.22;;;;;;;12.80;100.00;92908.28;2098476;28;20028;-88
2021/07/04 00:01:33;;;;;;;4.50;4.07;;;;;;;12.79;100.00;92908.72;2086164;28;20024;-88
2021/07/04 00:02:34;;;;;;;4.22;3.88;;;;;;;12.78;100.00;92905.28;2098670;28;20025;-89
2021/07/04 00:03:34;;;;;;;4.28;3.85;;;;;;;12.78;100.00;92912.59;2106844;28;20028;-88
2021/07/04 00:04:38;;;;;;;4.22;3.83;;;;;;;12.79;100.00;92906.78;2098374;28;20024;-87
2021/07/04 00:05:42;;;;;;;4.65;3.78;;;;;;;12.74;100.00;92909.28;2098592;28;20397;-89
2021/07/04 00:06:42;;;;;;;4.28;3.88;;;;;;;12.79;100.00;92908.72;2101696;28;20115;-87
2021/07/04 00:07:44;;;;;;;4.63;4.30;;;;;;;12.77;100.00;92911.81;2098225;28;20024;-88
2021/07/04 00:08:44;;;;;;;7.28;3.85;;;;;;;12.78;100.00;92907.97;2090125;28;20029;-87
2021/07/04 00:09:45;;;;;;;4.72;4.18;;;;;;;12.74;100.00;92903.91;2099213;28;20456;-87
2021/07/04 00:10:49;;;;;;;6.32;4.10;;;;;;;12.76;100.00;92906.88;2098616;28;20062;-88
2021/07/04 00:11:50;;;;;;;4.53;4.13;;;;;;;12.73;100.00;92916.56;2090668;28;20040;-88
2021/07/04 00:12:51;;;;;;;4.85;4.20;;;;;;;12.71;100.00;92907.44;2088063;28;20508;-87
2021/07/04 00:13:52;;;;;;;5.35;4.05;;;;;;;12.65;100.00;92909.94;2082043;28;20112;-89
2021/07/04 00:14:53;;;;;;;4.05;3.67;;;;;;;12.68;100.00;92900.25;2096784;28;20021;-88
2021/07/04 00:15:54;;;;;;;4.53;4.13;;;;;;;12.64;100.00;92913.78;2098275;28;20082;-87
2021/07/04 00:16:55;;;;;;;5.28;4.40;;;;;;;12.66;100.00;92906.06;2098330;28;20104;-88
2021/07/04 00:17:56;;;;;;;4.13;3.72;;;;;;;12.60;100.00;92905.88;2098543;28;20020;-88
2021/07/04 00:18:56;;;;;;;4.57;4.20;;;;;;;12.63;100.00;92906.19;2081776;28;20410;-88
2021/07/04 00:19:57;;;;;;;4.43;4.03;;;;;;;12.63;100.00;92906.19;2089502;28;20588;-87
2021/07/04 00:21:00;;;;;;;4.65;4.05;;;;;;;12.60;100.00;92902.44;2090126;28;20063;-88
2021/07/04 00:22:00;;;;;;;4.53;4.13;;;;;;;12.60;100.00;92911.25;2098719;28;20070;-89
2021/07/04 00:23:01;;;;;;;5.35;3.72;;;;;;;12.58;100.00;92894.81;2090162;28;20036;-89
2021/07/04 00:24:03;;;;;;;5.13;4.25;;;;;;;12.58;100.00;92902.88;2081870;28;20401;-87
2021/07/04 00:25:07;;;;;;;4.03;3.72;;;;;;;12.54;100.00;92901.47;2090234;28;20021;-88
2021/07/04 00:26:08;;;;;;;4.40;4.00;;;;;;;12.48;100.00;92897.84;2090622;28;20116;-88
2021/07/04 00:27:09;;;;;;;4.40;3.58;;;;;;;12.50;100.00;92901.59;2088078;28;20481;-89
2021/07/04 00:28:12;;;;;;;5.15;4.20;;;;;;;12.51;100.00;92894.28;2090238;28;20123;-87
2021/07/04 00:29:13;;;;;;;6.05;4.15;;;;;;;12.50;100.00;92895.47;2082618;28;20076;-88
2021/07/04 00:30:14;;;;;;;4.05;3.75;;;;;;;12.44;100.00;92894.53;2090163;28;20123;-89
2021/07/04 00:31:15;;;;;;;4.93;3.60;;;;;;;12.44;100.00;92897.97;2098530;28;20028;-88
2021/07/04 00:32:16;;;;;;;4.38;3.92;;;;;;;12.41;100.00;92895.41;2098315;28;20111;-88
2021/07/04 00:33:17;;;;;;;4.45;3.80;;;;;;;12.41;100.00;92888.09;2090133;28;20409;-86
2021/07/04 00:34:18;;;;;;;4.25;3.85;;;;;;;12.43;100.00;92882.31;2098271;28;20036;-87
2021/07/04 00:35:20;;;;;;;4.15;3.80;;;;;;;12.42;100.00;92891.53;2106484;28;20032;-87
2021/07/04 00:36:21;;;;;;;7.20;3.50;;;;;;;12.46;100.00;92889.47;2098665;28;20029;-87
2021/07/04 00:37:22;;;;;;;5.60;3.97;;;;;;;12.41;100.00;92887.34;2090127;28;20021;-88
2021/07/04 00:38:22;;;;;;;5.72;3.88;;;;;;;12.41;100.00;92885.44;2089279;28;20650;-88
2021/07/04 00:39:23;;;;;;;5.28;4.07;;;;;;;12.48;100.00;92881.78;2089939;28;20156;-89
2021/07/04 00:40:25;;;;;;;4.13;3.80;;;;;;;12.48;100.00;92887.13;2098437;28;20082;-89
2021/07/04 00:41:26;;;;;;;4.00;3.60;;;;;;;12.48;100.00;92889.81;2081825;28;20033;-87
2021/07/04 00:42:27;;;;;;;4.20;3.90;;;;;;;12.46;100.00;92890.22;2081858;28;20120;-88
2021/07/04 00:43:27;;;;;;;4.18;3.78;;;;;;;12.42;100.00;92886.91;2089638;28;20471;-88
2021/07/04 00:44:28;;;;;;;4.68;4.00;;;;;;;12.38;100.00;92883.63;2090017;28;20128;-89
2021/07/04 00:45:29;;;;;;;5.70;3.70;;;;;;;12.38;100.00;92882.84;2081171;28;20033;-87
2021/07/04 00:46:31;;;;;;;8.13;3.90;;;;;;;12.41;100.00;92882.00;2090982;28;20485;-88
2021/07/04 00:47:31;;;;;;;4.03;3.72;;;;;;;12.38;100.00;92872.13;2096449;28;20044;-87
2021/07/04 00:48:32;;;;;;;3.97;3.67;;;;;;;12.42;100.00;92880.81;2083638;28;20029;-88
2021/07/04 00:49:33;;;;;;;4.57;4.18;;;;;;;12.42;100.00;92878.13;2089942;28;20021;-88
2021/07/04 00:50:35;;;;;;;6.63;4.30;;;;;;;12.45;100.00;92872.66;2104644;28;20028;-87
2021/07/04 00:51:36;;;;;;;4.70;4.30;;;;;;;12.45;100.00;92864.63;2092545;28;20525;-87
2021/07/04 00:52:37;;;;;;;8.90;4.10;;;;;;;12.46;100.00;92868.78;2087294;28;20059;-88
2021/07/04 00:53:38;;;;;;;4.57;4.15;;;;;;;12.46;100.00;92871.47;2089826;28;20090;-88
2021/07/04 00:54:39;;;;;;;8.60;4.43;;;;;;;12.47;100.00;92873.00;2093132;28;20119;-87
2021/07/04 00:55:41;;;;;;;4.50;4.10;;;;;;;12.48;100.00;92865.69;2089645;28;20091;-88
2021/07/04 00:56:42;;;;;;;4.50;4.10;;;;;;;12.53;100.00;92873.19;2093098;28;20020;-87
2021/07/04 00:57:44;;;;;;;4.60;4.20;;;;;;;12.51;100.00;92867.47;2106552;28;20032;-88
2021/07/04 00:58:45;;;;;;;8.30;4.25;;;;;;;12.50;100.00;92868.69;2106535;28;20031;-88
2021/07/04 00:59:46;;;;;;;5.65;4.40;;;;;;;12.50;100.00;92869.41;2093517;28;20048;-88
2021/07/04 01:00:47;;;;;;;4.35;3.95;;;;;;;12.51;100.00;92870.94;2098109;28;20020;-88
2021/07/04 01:01:48;;;;;;;4.72;4.00;;;;;;;12.50;100.00;92872.09;2106492;28;20103;-89
2021/07/04 01:02:49;;;;;;;5.10;4.22;;;;;;;12.47;100.00;92877.59;2098082;28;20032;-88
2021/07/04 01:03:50;;;;;;;6.00;3.83;;;;;;;12.48;100.00;92863.00;2089713;28;20390;-87
2021/07/04 01:04:51;;;;;;;4.90;4.50;;;;;;;12.44;100.00;92868.47;2085814;28;20029;-87
2021/07/04 01:05:52;;;;;;;8.45;4.43;;;;;;;12.47;100.00;92864.94;2089771;28;20076;-90
2021/07/04 01:06:52;;;;;;;6.45;4.35;;;;;;;12.47;100.00;92864.94;2094451;28;20016;-87
2021/07/04 01:07:54;;;;;;;4.57;3.85;;;;;;;12.45;100.00;92864.63;2089585;28;20108;-88
2021/07/04 01:08:55;;;;;;;6.93;4.40;;;;;;;12.45;100.00;92866.56;2096189;28;20021;-88
2021/07/04 01:09:55;;;;;;;4.47;4.03;;;;;;;12.50;100.00;92863.31;2101305;28;20028;-90
2021/07/04 01:10:56;;;;;;;6.97;4.47;;;;;;;12.49;100.00;92862.56;2095055;28;20021;-88
2021/07/04 01:11:57;;;;;;;4.20;3.88;;;;;;;12.44;100.00;92865.06;2089509;28;20029;-89
2021/07/04 01:12:59;;;;;;;5.85;3.83;;;;;;;12.47;100.00;92866.88;2089829;28;20481;-87
2021/07/04 01:14:01;;;;;;;4.68;4.28;;;;;;;12.46;100.00;92879.50;2089832;28;20028;-89
2021/07/04 01:15:04;;;;;;;5.20;4.60;;;;;;;12.48;100.00;92879.09;2097530;28;20016;-88
2021/07/04 01:16:05;;;;;;;4.35;4.05;;;;;;;12.46;100.00;92866.09;2090060;28;20107;-88
2021/07/04 01:17:06;;;;;;;5.38;4.35;;;;;;;12.47;100.00;92862.25;2097870;28;20040;-87
2021/07/04 01:18:08;;;;;;;5.47;4.20;;;;;;;12.45;100.00;92869.97;2106259;28;20372;-87
2021/07/04 01:19:13;;;;;;;4.60;4.20;;;;;;;12.48;100.00;92871.78;2101178;28;20503;-90
2021/07/04 01:20:18;;;;;;;5.00;4.63;;;;;;;12.45;100.00;92872.66;2098688;28;20453;-88
2021/07/04 01:21:20;;;;;;;5.82;4.40;;;;;;;12.43;100.00;92867.00;2098719;28;20051;-88
2021/07/04 01:22:22;;;;;;;7.88;4.28;;;;;;;12.42;100.00;92870.84;2098064;28;20023;-89
2021/07/04 01:23:23;;;;;;;5.00;4.50;;;;;;;12.46;100.00;92870.72;2084859;28;20025;-87
2021/07/04 01:24:25;;;;;;;4.78;4.38;;;;;;;12.42;100.00;92870.84;2089867;28;20021;-88
2021/07/04 01:25:28;;;;;;;5.22;4.72;;;;;;;12.46;100.00;92870.72;2097795;28;20025;-88
2021/07/04 01:26:30;;;;;;;4.22;3.90;;;;;;;12.43;100.00;92867.00;2089963;28;20108;-89
2021/07/04 01:27:32;;;;;;;5.97;5.15;;;;;;;12.41;100.00;92863.97;2089720;28;20025;-89
2021/07/04 01:28:34;;;;;;;7.40;4.30;;;;;;;12.42;100.00;92872.75;2098132;28;20020;-88
2021/07/04 01:29:34;;;;;;;6.20;4.40;;;;;;;12.43;100.00;92858.19;2089478;28;20167;-88
2021/07/04 01:30:35;;;;;;;7.78;4.75;;;;;;;12.41;100.00;92868.59;2089540;28;20067;-91
2021/07/04 01:31:36;;;;;;;4.63;4.07;;;;;;;12.39;100.00;92855.63;2089451;28;20398;-89
2021/07/04 01:32:37;;;;;;;4.95;4.50;;;;;;;12.37;100.00;92860.66;2081636;28;20858;-88
2021/07/04 01:33:37;;;;;;;5.32;4.30;;;;;;;12.35;100.00;92865.72;2081538;28;20765;-89
2021/07/04 01:34:38;;;;;;;4.90;4.47;;;;;;;12.31;100.00;92865.84;2089496;28;20071;-88
2021/07/04 01:35:39;;;;;;;5.10;4.60;;;;;;;12.33;100.00;92866.13;2092524;28;20120;-88
2021/07/04 01:36:40;;;;;;;5.22;4.13;;;;;;;12.33;100.00;92868.81;2087341;28;20527;-88
2021/07/04 01:37:41;;;;;;;5.50;4.95;;;;;;;12.33;100.00;92863.47;2089636;28;20025;-87
2021/07/04 01:38:42;;;;;;;4.80;4.40;;;;;;;12.29;100.00;92860.16;2093049;28;20381;-88
2021/07/04 01:39:43;;;;;;;4.75;4.35;;;;;;;12.30;100.00;92871.63;2097781;28;20032;-88
2021/07/04 01:40:44;;;;;;;4.68;4.13;;;;;;;12.31;100.00;92863.16;2097864;28;20028;-89
2021/07/04 01:41:44;;;;;;;6.93;4.47;;;;;;;12.35;100.00;92861.09;2101277;28;20053;-89
2021/07/04 01:42:46;;;;;;;4.97;4.57;;;;;;;12.24;100.00;92858.00;2097717;28;20032;-89
2021/07/04 01:43:47;;;;;;;4.55;4.25;;;;;;;12.26;100.00;92866.38;2097620;28;20032;-88
2021/07/04 01:44:47;;;;;;;5.05;4.55;;;;;;;12.27;100.00;92859.84;2089409;28;20020;-87
2021/07/04 01:45:48;;;;;;;4.85;4.38;;;;;;;12.29;100.00;92862.06;2085500;28;20025;-88
2021/07/04 01:46:49;;;;;;;5.20;4.70;;;;;;;12.22;100.00;92862.31;2089505;28;20067;-89
2021/07/04 01:47:53;;;;;;;4.90;4.50;;;;;;;12.23;100.00;92864.56;2097877;28;20025;-89
2021/07/04 01:48:54;;;;;;;4.97;4.43;;;;;;;12.25;100.00;92862.22;2082278;28;20167;-90
2021/07/04 01:49:55;;;;;;;8.48;4.63;;;;;;;12.22;100.00;92860.38;2089652;28;20082;-88
2021/07/04 01:50:55;;;;;;;5.38;4.50;;;;;;;12.23;100.00;92864.56;2089322;28;20032;-87
2021/07/04 01:51:56;;;;;;;6.05;4.32;;;;;;;12.22;100.00;92862.31;2081267;28;20083;-88
2021/07/04 01:52:57;;;;;;;8.40;4.30;;;;;;;12.18;100.00;92867.78;2097820;28;20115;-88
2021/07/04 01:53:58;;;;;;;5.68;4.88;;;;;;;12.17;100.00;92866.28;2089288;28;20036;-86
2021/07/04 01:54:58;;;;;;;5.75;5.10;;;;;;;12.18;100.00;92869.72;2092811;28;20755;-89
2021/07/04 01:56:04;;;;;;;5.55;5.05;;;;;;;12.28;100.00;92864.00;2097506;28;20029;-88
2021/07/04 01:57:13;;;;;;;5.97;4.60;;;;;;;12.27;100.00;92859.84;2098938;28;20481;-86
2021/07/04 01:58:14;;;;;;;5.83;4.90;;;;;;;12.22;100.00;92862.31;2107315;28;20016;-88
2021/07/04 01:59:15;;;;;;;6.70;4.45;;;;;;;12.23;100.00;92861.13;2097952;28;20020;-88
2021/07/04 02:00:20;;;;;;;5.85;4.80;;;;;;;12.25;100.00;92864.88;2097780;28;20483;-87
2021/07/04 02:01:21;;;;;;;5.93;5.00;;;;;;;12.26;100.00;92863.69;2098288;28;20059;-89
2021/07/04 02:02:21;;;;;;;5.32;4.82;;;;;;;12.26;100.00;92862.97;2097835;28;20755;-89
2021/07/04 02:03:22;;;;;;;5.22;4.75;;;;;;;12.26;100.00;92857.59;2106241;28;20054;-89
2021/07/04 02:06:06;;;;;;;;;;;;;;;12.23;100.00;92858.44;2148423;27;20109;-86
2021/07/04 02:07:14;;;;;;;8.57;4.38;;;;;;;12.23;100.00;92863.81;2126524;27;19915;-87
2021/07/04 02:08:15;;;;;;;8.07;4.45;;;;;;;12.19;100.00;92849.78;2139882;27;20010;-87
2021/07/04 02:09:15;;;;;;;7.10;5.07;;;;;;;12.17;100.00;92855.56;2138824;27;20015;-85
2021/07/04 02:10:22;;;;;;;5.47;4.57;;;;;;;12.16;100.00;92856.00;2121914;27;20026;-88
2021/07/04 02:11:23;;;;;;;5.28;4.78;;;;;;;12.18;100.00;92856.31;2130416;27;20030;-88
2021/07/04 02:12:24;;;;;;;6.63;4.95;;;;;;;12.17;100.00;92860.19;2117780;27;20051;-85
2021/07/04 02:13:25;;;;;;;6.93;4.68;;;;;;;12.18;100.00;92867.03;2130471;27;20739;-87
2021/07/04 02:14:30;;;;;;;6.22;4.72;;;;;;;12.20;100.00;92854.69;2118776;28;20031;-89
2021/07/04 02:15:33;;;;;;;5.32;4.82;;;;;;;12.24;100.00;92860.69;2121811;27;20024;-85
2021/07/04 02:16:34;;;;;;;4.90;4.13;;;;;;;12.21;100.00;92853.53;2113269;28;20028;-87
2021/07/04 02:17:34;;;;;;;5.20;4.80;;;;;;;12.21;100.00;92856.22;2106687;28;20412;-85
2021/07/04 02:18:35;;;;;;;5.40;4.90;;;;;;;12.19;100.00;92852.47;2110505;28;20085;-86
2021/07/04 02:19:38;;;;;;;7.35;5.22;;;;;;;12.21;100.00;92861.56;2113204;28;20077;-89
2021/07/04 02:20:40;;;;;;;7.97;5.57;;;;;;;12.23;100.00;92863.81;2133268;27;20101;-89
2021/07/04 02:21:40;;;;;;;9.80;5.22;;;;;;;12.19;100.00;92857.81;2126851;27;20019;-85
2021/07/04 02:22:41;;;;;;;6.90;4.93;;;;;;;12.23;100.00;92855.78;2125825;27;20554;-86
2021/07/04 02:23:42;;;;;;;8.32;5.15;;;;;;;12.19;100.00;92852.47;2133443;27;20522;-85
2021/07/04 02:24:43;;;;;;;7.68;5.10;;;;;;;12.20;100.00;92860.06;2121462;27;20030;-87
2021/07/04 02:25:46;;;;;;;6.97;4.80;;;;;;;12.21;100.00;92858.16;2124487;27;20023;-87
2021/07/04 02:26:46;;;;;;;11.52;5.28;;;;;;;12.20;100.00;92846.66;2125959;27;20110;-86
2021/07/04 02:27:47;;;;;;;5.40;5.00;;;;;;;12.21;100.00;92850.09;2130067;27;20022;-88
2021/07/04 02:28:48;;;;;;;5.40;4.65;;;;;;;12.23;100.00;92848.47;2134336;27;20023;-86
2021/07/04 02:29:48;;;;;;;5.15;4.75;;;;;;;12.21;100.00;92848.19;2121089;28;20484;-88
2021/07/04 02:30:52;;;;;;;4.90;4.40;;;;;;;12.22;100.00;92838.94;2117456;28;20042;-88
2021/07/04 02:31:52;;;;;;;6.10;5.10;;;;;;;12.22;100.00;92846.25;2118245;27;20487;-85
2021/07/04 02:32:53;;;;;;;6.28;4.90;;;;;;;12.22;100.00;92844.31;2138548;27;20101;-86
2021/07/04 02:33:54;;;;;;;5.20;4.80;;;;;;;12.24;100.00;92844.63;2133326;27;20525;-88
2021/07/04 02:34:55;;;;;;;5.40;4.90;;;;;;;12.23;100.00;92839.69;2118364;28;20019;-85
2021/07/04 02:35:58;;;;;;;5.55;4.60;;;;;;;12.23;100.00;92837.75;2129982;27;20090;-88
2021/07/04 02:36:58;;;;;;;6.00;4.68;;;;;;;12.22;100.00;92843.56;2121486;27;20015;-87
2021/07/04 02:37:59;;;;;;;5.38;4.88;;;;;;;12.23;100.00;92847.72;2121477;28;20018;-86
2021/07/04 02:39:00;;;;;;;5.00;4.50;;;;;;;12.21;100.00;92845.50;2121502;28;20023;-90
2021/07/04 02:40:02;;;;;;;7.57;5.80;;;;;;;12.20;100.00;92851.28;2127600;27;20371;-87
2021/07/04 02:41:03;;;;;;;6.70;5.07;;;;;;;12.19;100.00;92852.47;2125882;27;20019;-88
2021/07/04 02:42:03;;;;;;;6.43;5.20;;;;;;;12.17;100.00;92847.53;2114545;28;20057;-85
2021/07/04 02:43:10;;;;;;;6.20;4.53;;;;;;;12.19;100.00;92847.09;2119623;28;20026;-87
2021/07/04 02:44:10;;;;;;;5.15;4.68;;;;;;;12.17;100.00;92854.84;2122558;27;20554;-87
2021/07/04 02:45:11;;;;;;;4.47;4.07;;;;;;;12.19;100.00;92849.78;2138503;27;20026;-83
2021/07/04 02:46:13;;;;;;;5.72;4.45;;;;;;;12.17;100.00;92847.53;2140039;27;20018;-87
2021/07/04 02:47:14;;;;;;;4.45;4.13;;;;;;;12.21;100.00;92855.47;2137944;27;20026;-87
2021/07/04 02:48:15;;;;;;;8.35;4.57;;;;;;;12.17;100.00;92852.91;2130316;27;20026;-89
2021/07/04 02:49:16;;;;;;;5.43;4.13;;;;;;;12.10;100.00;92855.78;2121565;27;20031;-86
2021/07/04 02:50:21;;;;;;;4.72;4.32;;;;;;;12.15;100.00;92847.19;2125389;27;20386;-86
2021/07/04 02:51:21;;;;;;;5.15;4.65;;;;;;;12.14;100.00;92850.31;2113857;27;20392;-85
2021/07/04 02:52:22;;;;;;;6.25;4.70;;;;;;;12.15;100.00;92849.13;2112813;28;20118;-86
2021/07/04 02:53:23;;;;;;;7.35;4.70;;;;;;;12.13;100.00;92854.19;2113166;28;20028;-86
2021/07/04 02:54:24;;;;;;;4.95;4.30;;;;;;;12.13;100.00;92848.84;2121207;27;20027;-87
2021/07/04 02:55:24;;;;;;;4.88;4.47;;;;;;;12.07;100.00;92846.69;2122211;27;20032;-86
2021/07/04 02:56:25;;;;;;;5.13;4.40;;;;;;;12.10;100.00;92851.19;2138258;27;20057;-86
2021/07/04 02:57:26;;;;;;;6.07;5.47;;;;;;;12.16;100.00;92847.94;2114008;28;20028;-86
2021/07/04 02:58:27;;;;;;;5.35;4.85;;;;;;;12.12;100.00;92850.03;2122685;27;20035;-89
2021/07/04 02:59:27;;;;;;;5.70;5.07;;;;;;;12.10;100.00;92853.13;2121163;28;20089;-86
2021/07/04 03:00:28;;;;;;;5.68;5.22;;;;;;;12.10;100.00;92853.13;2112982;28;20032;-85
2021/07/04 03:01:29;;;;;;;5.95;5.20;;;;;;;12.09;100.00;92851.63;2121180;28;20035;-86
2021/07/04 03:02:29;;;;;;;7.43;5.00;;;;;;;12.09;100.00;92852.38;2110345;28;20512;-86
2021/07/04 03:03:30;;;;;;;6.00;4.30;;;;;;;12.05;100.00;92854.41;2104277;28;20039;-86
2021/07/04 03:04:31;;;;;;;5.93;4.90;;;;;;;12.04;100.00;92857.53;2110845;28;20027;-88
2021/07/04 03:05:32;;;;;;;5.30;4.88;;;;;;;12.05;100.00;92853.66;2103615;28;20105;-87
2021/07/04 03:06:32;;;;;;;6.10;4.40;;;;;;;11.98;100.00;92851.19;2105216;28;20033;-87
2021/07/04 03:07:33;;;;;;;6.80;4.55;;;;;;;12.00;100.00;92856.88;2104293;28;20036;-86
2021/07/04 03:08:34;;;;;;;5.03;4.63;;;;;;;11.99;100.00;92850.03;2112520;28;20027;-87
2021/07/04 03:09:35;;;;;;;6.93;4.45;;;;;;;12.01;100.00;92850.34;2121358;28;20065;-87
2021/07/04 03:10:35;;;;;;;4.78;4.38;;;;;;;11.95;100.00;92852.81;2121944;27;20019;-89
2021/07/04 03:11:36;;;;;;;4.85;4.38;;;;;;;11.90;100.00;92853.38;2112835;28;20032;-87
2021/07/04 03:12:37;;;;;;;5.72;4.20;;;;;;;11.88;100.00;92861.06;2104273;28;20100;-85
2021/07/04 03:13:38;;;;;;;4.47;4.13;;;;;;;11.91;100.00;92854.84;2121127;28;20038;-86
2021/07/04 03:14:38;;;;;;;4.43;4.13;;;;;;;11.95;100.00;92860.13;2121080;28;20011;-89
2021/07/04 03:15:40;;;;;;;6.50;4.75;;;;;;;11.95;100.00;92855.50;2104119;28;20030;-88
2021/07/04 03:16:40;;;;;;;5.20;4.78;;;;;;;11.92;100.00;92858.28;2095241;28;20108;-88
2021/07/04 03:17:41;;;;;;;5.38;4.35;;;;;;;11.96;100.00;92857.00;2097809;28;20087;-86
2021/07/04 03:18:42;;;;;;;6.82;4.57;;;;;;;11.98;100.00;92859.97;2090353;28;20021;-86
2021/07/04 03:19:42;;;;;;;4.90;4.47;;;;;;;11.93;100.00;92851.75;2099913;28;20056;-87
2021/07/04 03:20:44;;;;;;;5.28;4.78;;;;;;;11.95;100.00;92852.81;2106553;28;20031;-87
2021/07/04 03:21:44;;;;;;;6.22;4.57;;;;;;;11.88;100.00;92855.72;2106895;28;20028;-87
2021/07/04 03:22:46;;;;;;;4.70;4.30;;;;;;;11.90;100.00;92860.66;2106962;28;20020;-86
2021/07/04 03:23:47;;;;;;;6.00;4.30;;;;;;;11.90;100.00;92861.41;2098737;28;20507;-87
2021/07/04 03:24:48;;;;;;;5.15;4.60;;;;;;;11.89;100.00;92856.47;2098670;28;20040;-83
2021/07/04 03:25:48;;;;;;;4.50;4.15;;;;;;;11.87;100.00;92859.56;2098410;28;20043;-87
2021/07/04 03:26:49;;;;;;;5.35;4.07;;;;;;;11.90;100.00;92856.03;2090170;28;20066;-88
2021/07/04 03:27:50;;;;;;;5.22;4.40;;;;;;;11.89;100.00;92853.78;2107090;28;20023;-87
2021/07/04 03:28:50;;;;;;;5.03;4.60;;;;;;;11.91;100.00;92854.84;2106766;28;20815;-84
2021/07/04 03:29:51;;;;;;;5.53;4.70;;;;;;;11.92;100.00;92851.00;2098316;28;20103;-84
2021/07/04 03:30:52;;;;;;;4.88;4.47;;;;;;;11.95;100.00;92847.47;2098590;28;20028;-87
2021/07/04 03:31:53;;;;;;;5.68;5.18;;;;;;;11.96;100.00;92843.59;2090336;28;20470;-86
2021/07/04 03:32:53;;;;;;;5.53;5.13;;;;;;;11.94;100.00;92842.53;2089689;28;20067;-87
2021/07/04 03:33:54;;;;;;;5.40;4.95;;;;;;;11.93;100.00;92843.72;2090316;28;20021;-87
2021/07/04 03:34:55;;;;;;;4.28;3.97;;;;;;;11.96;100.00;92840.19;2098598;28;20408;-87
2021/07/04 03:35:55;;;;;;;5.65;4.93;;;;;;;11.97;100.00;92842.41;2106849;28;20070;-85
2021/07/04 03:36:57;;;;;;;6.55;5.13;;;;;;;12.01;100.00;92842.31;2106765;28;20117;-86
2021/07/04 03:37:57;;;;;;;5.05;4.57;;;;;;;11.95;100.00;92847.47;2106972;28;20472;-85
2021/07/04 03:38:58;;;;;;;4.78;4.38;;;;;;;11.98;100.00;92841.22;2106918;28;20032;-90
2021/07/04 03:39:59;;;;;;;4.60;4.20;;;;;;;11.94;100.00;92853.22;2098462;28;20031;-88
2021/07/04 03:40:59;;;;;;;4.75;4.38;;;;;;;11.96;100.00;92848.97;2098531;28;20408;-86
2021/07/04 03:42:00;;;;;;;5.57;5.13;;;;;;;11.94;100.00;92840.63;2106377;28;20028;-85
2021/07/04 03:43:01;;;;;;;4.70;4.40;;;;;;;11.91;100.00;92854.13;2106847;28;20099;-84
2021/07/04 03:44:01;;;;;;;5.75;4.50;;;;;;;11.96;100.00;92845.53;2106787;28;20024;-88
2021/07/04 03:45:04;;;;;;;6.05;5.55;;;;;;;11.97;100.00;92845.09;2097926;28;20078;-87
2021/07/04 03:46:04;;;;;;;6.13;4.78;;;;;;;12.04;100.00;92847.56;2098710;28;20039;-88
2021/07/04 03:47:05;;;;;;;4.25;3.85;;;;;;;12.02;100.00;92843.81;2106905;28;20807;-85
2021/07/04 03:48:06;;;;;;;4.72;4.40;;;;;;;12.06;100.00;92842.50;2106702;28;20031;-85
2021/07/04 03:49:07;;;;;;;4.97;4.57;;;;;;;12.09;100.00;92846.25;2106645;28;20467;-86
2021/07/04 03:50:08;;;;;;;5.35;4.68;;;;;;;12.08;100.00;92842.09;2115379;28;20620;-89
2021/07/04 03:51:09;;;;;;;5.00;4.60;;;;;;;12.07;100.00;92846.69;2115808;27;20023;-85
2021/07/04 03:52:10;;;;;;;5.18;4.68;;;;;;;12.13;100.00;92854.19;2115068;28;20063;-85
2021/07/04 03:53:10;;;;;;;5.22;4.82;;;;;;;12.13;100.00;92852.25;2115222;28;20026;-85
2021/07/04 03:54:11;;;;;;;7.20;5.00;;;;;;;12.17;100.00;92849.47;2106220;28;20035;-86
2021/07/04 03:55:14;;;;;;;5.18;4.78;;;;;;;12.20;100.00;92845.91;2106701;28;20012;-86
2021/07/04 03:56:15;;;;;;;6.47;4.90;;;;;;;12.18;100.00;92846.34;2106635;28;20024;-87
2021/07/04 03:57:21;;;;;;;5.28;4.78;;;;;;;12.19;100.00;92847.09;2089671;28;20362;-87
2021/07/04 03:58:22;;;;;;;5.80;4.93;;;;;;;12.25;100.00;92842.72;2099776;28;20458;-87
2021/07/04 03:59:23;;;;;;;5.85;5.35;;;;;;;12.25;100.00;92845.38;2106570;28;20111;-87
2021/07/04 04:00:24;;;;;;;7.32;4.57;;;;;;;12.26;100.00;92846.88;2106506;28;20504;-86
2021/07/04 04:01:25;;;;;;;5.88;4.85;;;;;;;12.33;100.00;92841.28;2108533;28;20020;-86
2021/07/04 04:02:26;;;;;;;4.53;4.03;;;;;;;12.33;100.00;92843.94;2112413;28;20035;-85
2021/07/04 04:03:27;;;;;;;5.75;5.25;;;;;;;12.37;100.00;92841.91;2106648;28;20422;-89
2021/07/04 04:04:27;;;;;;;7.03;4.43;;;;;;;12.35;100.00;92842.34;2098335;28;20056;-89
2021/07/04 04:05:28;;;;;;;4.68;4.32;;;;;;;12.38;100.00;92835.38;2100905;28;20463;-87
2021/07/04 04:06:29;;;;;;;5.20;4.70;;;;;;;12.38;100.00;92838.06;2097764;28;20020;-86
2021/07/04 04:07:29;;;;;;;5.93;5.43;;;;;;;12.31;100.00;92833.66;2091971;28;20036;-89
2021/07/04 04:08:30;;;;;;;5.32;4.82;;;;;;;12.35;100.00;92836.97;2093575;28;20504;-89
2021/07/04 04:09:31;;;;;;;4.65;4.22;;;;;;;12.37;100.00;92827.75;2097901;28;20025;-85
2021/07/04 04:10:32;;;;;;;5.82;5.10;;;;;;;12.39;100.00;92833.44;2102196;28;20033;-88
2021/07/04 04:11:33;;;;;;;4.90;4.50;;;;;;;12.41;100.00;92829.13;2117149;27;20023;-89
2021/07/04 04:12:34;;;;;;;6.65;4.93;;;;;;;12.43;100.00;92824.09;2106208;28;20028;-87
2021/07/04 04:13:35;;;;;;;6.72;4.80;;;;;;;12.39;100.00;92826.16;2097804;28;20029;-88
2021/07/04 04:14:36;;;;;;;6.32;5.82;;;;;;;12.39;100.00;92828.09;2102269;28;20499;-86
2021/07/04 04:15:37;;;;;;;5.82;4.80;;;;;;;12.41;100.00;92828.38;2097141;28;20048;-86
2021/07/04 04:16:38;;;;;;;5.50;5.00;;;;;;;12.41;100.00;92829.13;2090721;28;20108;-86
2021/07/04 04:17:39;;;;;;;6.75;5.20;;;;;;;12.48;100.00;92830.84;2094398;28;20668;-86
2021/07/04 04:18:39;;;;;;;6.50;5.20;;;;;;;12.43;100.00;92834.81;2102955;28;20421;-86
2021/07/04 04:19:40;;;;;;;5.47;4.65;;;;;;;12.44;100.00;92841.69;2094546;28;20748;-85
2021/07/04 04:20:41;;;;;;;6.88;4.65;;;;;;;12.44;100.00;92832.88;2085775;28;20541;-86
2021/07/04 04:21:42;;;;;;;5.85;5.35;;;;;;;12.49;100.00;92835.00;2090505;28;20028;-85
2021/07/04 04:22:42;;;;;;;6.15;5.38;;;;;;;12.46;100.00;92835.88;2106431;28;20487;-87
2021/07/04 04:23:43;;;;;;;5.20;4.80;;;;;;;12.43;100.00;92828.72;2097384;28;20595;-84
2021/07/04 04:24:44;;;;;;;5.07;4.68;;;;;;;12.44;100.00;92838.25;2100550;28;20063;-86
2021/07/04 04:25:44;;;;;;;5.18;4.68;;;;;;;12.46;100.00;92828.56;2101785;28;20384;-89
2021/07/04 04:26:45;;;;;;;5.00;4.60;;;;;;;12.43;100.00;92828.72;2091370;28;20013;-87
2021/07/04 04:27:46;;;;;;;5.32;4.68;;;;;;;12.48;100.00;92820.13;2104722;28;20024;-85
2021/07/04 04:28:46;;;;;;;5.45;4.95;;;;;;;12.49;100.00;92817.00;2107103;28;20035;-85
2021/07/04 04:29:47;;;;;;;5.63;5.22;;;;;;;12.50;100.00;92807.75;2113917;28;20036;-88
2021/07/04 04:30:48;;;;;;;7.10;4.45;;;;;;;12.48;100.00;92812.81;2113230;28;20062;-86
2021/07/04 04:31:49;;;;;;;5.38;4.88;;;;;;;12.52;100.00;92805.41;2113888;28;20039;-86
2021/07/04 04:32:49;;;;;;;6.05;4.80;;;;;;;12.53;100.00;92806.16;2112193;28;20027;-86
2021/07/04 04:33:50;;;;;;;5.82;5.25;;;;;;;12.50;100.00;92802.41;2103704;28;20107;-86
2021/07/04 04:34:51;;;;;;;5.68;5.15;;;;;;;12.50;100.00;92809.69;2085184;28;20040;-87
2021/07/04 04:35:51;;;;;;;6.05;5.30;;;;;;;12.46;100.00;92809.81;2104950;28;20092;-86
2021/07/04 04:36:52;;;;;;;5.50;5.00;;;;;;;12.48;100.00;92809.41;2104049;28;20032;-88
2021/07/04 04:37:53;;;;;;;5.68;5.18;;;;;;;12.47;100.00;92802.53;2096980;28;20036;-86
2021/07/04 04:38:53;;;;;;;6.22;5.22;;;;;;;12.45;100.00;92805.63;2089531;28;20029;-90
2021/07/04 04:39:54;;;;;;;5.57;5.07;;;;;;;12.47;100.00;92808.66;2090585;28;20036;-88
2021/07/04 04:40:55;;;;;;;6.18;5.68;;;;;;;12.50;100.00;92801.66;2113396;28;20020;-87
2021/07/04 04:41:56;;;;;;;5.40;4.82;;;;;;;12.51;100.00;92803.16;2108028;28;20533;-85
2021/07/04 04:42:56;;;;;;;7.55;5.53;;;;;;;12.51;100.00;92809.28;2114822;28;20030;-88
2021/07/04 04:43:57;;;;;;;5.90;5.40;;;;;;;12.50;100.00;92807.75;2106339;28;20024;-86
2021/07/04 04:44:58;;;;;;;5.30;4.90;;;;;;;12.52;100.00;92804.66;2104218;28;20031;-86
2021/07/04 04:45:58;;;;;;;5.40;4.90;;;;;;;12.51;100.00;92803.91;2097865;28;20831;-85